createdAt,value
2022-12-24T00:01:28.544Z,15.80
2022-12-24T00:03:56.078Z,15.40
2022-12-24T00:06:25.755Z,13.70
2022-12-24T00:08:55.327Z,17.10
2022-12-24T00:11:22.381Z,17.90
2022-12-24T00:13:49.412Z,12.80
2022-12-24T00:16:16.260Z,17.40
2022-12-24T00:18:46.581Z,13.90
2022-12-24T00:21:15.827Z,14.30
2022-12-24T00:23:43.027Z,15.00
2022-12-24T00:26:09.533Z,15.30
2022-12-24T00:28:37.439Z,15.20
2022-12-24T00:31:12.732Z,15.70
2022-12-24T00:33:39.710Z,12.60
2022-12-24T00:36:09.439Z,12.60
2022-12-24T00:38:36.049Z,18.10
2022-12-24T00:41:05.189Z,19.70
2022-12-24T00:43:32.912Z,15.40
2022-12-24T00:45:59.684Z,16.90
2022-12-24T00:48:27.543Z,15.50
2022-12-24T00:50:54.165Z,16.50
2022-12-24T00:53:22.745Z,16.80
2022-12-24T00:55:49.233Z,18.20
2022-12-24T00:58:15.951Z,14.20
2022-12-24T01:00:42.571Z,19.70
2022-12-24T01:03:12.569Z,16.10
2022-12-24T01:05:39.408Z,16.80
2022-12-24T01:08:08.618Z,13.30
2022-12-24T01:10:36.368Z,16.70
2022-12-24T01:13:03.880Z,15.40
2022-12-24T01:15:30.795Z,15.80
2022-12-24T01:17:59.918Z,16.40
2022-12-24T01:20:31.705Z,17.40
2022-12-24T01:22:58.778Z,18.70
2022-12-24T01:25:25.274Z,18.40
2022-12-24T01:27:51.891Z,12.70
2022-12-24T01:30:20.871Z,17.00
2022-12-24T01:32:48.864Z,16.40
2022-12-24T01:35:15.498Z,15.80
2022-12-24T01:37:43.523Z,17.20
2022-12-24T01:40:34.689Z,19.60
2022-12-24T01:43:19.909Z,17.50
2022-12-24T01:45:50.840Z,18.90
2022-12-24T01:48:41.251Z,20.00
2022-12-24T01:51:36.073Z,18.10
2022-12-24T01:54:11.292Z,17.10
2022-12-24T01:56:46.674Z,12.50
2022-12-24T01:59:18.726Z,13.00
2022-12-24T02:01:51.518Z,14.70
2022-12-24T02:04:38.103Z,15.20
2022-12-24T02:07:07.026Z,15.50
2022-12-24T02:09:36.758Z,16.50
2022-12-24T02:12:06.282Z,14.40
2022-12-24T02:14:34.751Z,14.40
2022-12-24T02:17:18.516Z,13.10
2022-12-24T02:20:00.459Z,14.00
2022-12-24T02:22:49.373Z,12.70
2022-12-24T02:25:44.124Z,10.40
2022-12-24T02:28:39.707Z,13.60
2022-12-24T02:31:16.106Z,14.30
2022-12-24T02:34:15.649Z,18.40
2022-12-24T02:37:13.336Z,17.10
2022-12-24T02:39:47.016Z,12.20
2022-12-24T02:42:20.164Z,15.40
2022-12-24T02:44:56.557Z,13.80
2022-12-24T02:47:26.997Z,14.00
2022-12-24T02:49:54.992Z,14.40
2022-12-24T02:52:40.152Z,16.40
2022-12-24T02:55:39.831Z,14.30
2022-12-24T02:58:51.750Z,11.20
2022-12-24T03:01:43.715Z,15.20
2022-12-24T03:04:39.750Z,14.70
2022-12-24T03:07:21.669Z,14.10
2022-12-24T03:10:23.902Z,13.60
2022-12-24T03:12:56.670Z,14.10
2022-12-24T03:15:25.873Z,13.70
2022-12-24T03:17:57.232Z,11.60
2022-12-24T03:20:37.427Z,15.50
2022-12-24T03:23:05.427Z,12.50
2022-12-24T03:25:33.719Z,11.60
2022-12-24T03:28:04.888Z,12.20
2022-12-24T03:30:32.008Z,11.80
2022-12-24T03:33:00.713Z,10.70
2022-12-24T03:35:27.493Z,14.40
2022-12-24T03:37:58.276Z,12.30
2022-12-24T03:40:25.250Z,12.30
2022-12-24T03:42:52.399Z,12.40
2022-12-24T03:45:20.163Z,11.60
2022-12-24T03:47:47.072Z,11.70
2022-12-24T03:50:14.478Z,10.30
2022-12-24T03:52:41.095Z,10.20
2022-12-24T03:55:07.982Z,11.30
2022-12-24T03:57:35.155Z,11.80
2022-12-24T04:00:07.598Z,12.20
2022-12-24T04:02:40.999Z,12.70
2022-12-24T04:05:13.195Z,13.40
2022-12-24T04:07:39.719Z,10.50
2022-12-24T04:10:06.732Z,10.20
2022-12-24T04:12:36.379Z,9.90
2022-12-24T04:15:03.537Z,9.30
2022-12-24T04:17:32.364Z,8.50
2022-12-24T04:20:03.468Z,9.60
2022-12-24T04:22:30.076Z,10.10
2022-12-24T04:24:56.776Z,10.00
2022-12-24T04:27:28.401Z,11.20
2022-12-24T04:29:57.805Z,10.50
2022-12-24T04:32:27.801Z,10.20
2022-12-24T04:34:55.442Z,10.10
2022-12-24T04:37:22.064Z,8.10
2022-12-24T04:39:48.714Z,10.10
2022-12-24T04:42:16.996Z,7.30
2022-12-24T04:44:43.601Z,7.90
2022-12-24T04:47:11.434Z,8.20
2022-12-24T04:49:38.093Z,9.00
2022-12-24T04:52:05.343Z,10.20
2022-12-24T04:54:33.189Z,7.10
2022-12-24T04:57:00.406Z,10.50
2022-12-24T04:59:28.058Z,11.20
2022-12-24T05:01:56.169Z,10.10
2022-12-24T05:04:26.926Z,9.40
2022-12-24T05:06:53.515Z,8.30
2022-12-24T05:09:20.494Z,9.50
2022-12-24T05:11:48.117Z,7.70
2022-12-24T05:14:14.691Z,9.70
2022-12-24T05:16:49.389Z,8.00
2022-12-24T05:19:16.910Z,11.90
2022-12-24T05:21:44.870Z,8.90
2022-12-24T05:24:30.674Z,8.90
2022-12-24T05:26:59.938Z,8.80
2022-12-24T05:29:28.326Z,9.70
2022-12-24T05:31:56.857Z,8.10
2022-12-24T05:34:24.597Z,8.80
2022-12-24T05:36:51.029Z,9.50
2022-12-24T05:39:20.593Z,9.90
2022-12-24T05:41:47.707Z,8.10
2022-12-24T05:44:18.353Z,11.10
2022-12-24T05:46:45.411Z,9.90
2022-12-24T05:49:14.947Z,9.90
2022-12-24T05:51:44.340Z,11.80
2022-12-24T05:54:10.995Z,8.80
2022-12-24T05:56:38.595Z,10.40
2022-12-24T05:59:07.897Z,10.20
2022-12-24T06:01:34.549Z,10.00
2022-12-24T06:04:04.234Z,9.20
2022-12-24T06:06:31.263Z,7.80
2022-12-24T06:08:59.296Z,10.50
2022-12-24T06:11:27.781Z,9.90
2022-12-24T06:13:56.544Z,9.70
2022-12-24T06:16:25.385Z,10.60
2022-12-24T06:18:53.506Z,10.00
2022-12-24T06:21:20.563Z,9.50
2022-12-24T06:23:48.329Z,9.60
2022-12-24T06:26:20.470Z,8.50
2022-12-24T06:28:49.542Z,8.40
2022-12-24T06:31:20.030Z,8.50
2022-12-24T06:33:47.303Z,7.20
2022-12-24T06:36:18.457Z,7.40
2022-12-24T06:38:47.714Z,8.20
2022-12-24T06:41:15.529Z,8.60
2022-12-24T06:43:45.154Z,7.50
2022-12-24T06:46:13.634Z,8.90
2022-12-24T06:48:44.112Z,7.40
2022-12-24T06:51:14.664Z,6.40
2022-12-24T06:53:41.262Z,7.30
2022-12-24T06:56:11.987Z,7.50
2022-12-24T06:58:41.238Z,7.80
2022-12-24T07:01:12.337Z,7.10
2022-12-24T07:03:39.657Z,5.80
2022-12-24T07:06:06.858Z,6.70
2022-12-24T07:08:38.898Z,6.60
2022-12-24T07:11:06.832Z,6.10
2022-12-24T07:13:34.472Z,6.50
2022-12-24T07:16:03.652Z,5.80
2022-12-24T07:18:32.128Z,9.40
2022-12-24T07:20:59.311Z,7.20
2022-12-24T07:23:25.876Z,6.20
2022-12-24T07:25:52.873Z,6.00
2022-12-24T07:28:25.483Z,6.40
2022-12-24T07:30:54.509Z,7.70
2022-12-24T07:33:21.424Z,6.80
2022-12-24T07:35:55.695Z,6.70
2022-12-24T07:38:22.702Z,6.50
2022-12-24T07:40:49.611Z,5.10
2022-12-24T07:43:17.212Z,5.70
2022-12-24T07:45:43.755Z,5.50
2022-12-24T07:48:10.673Z,6.00
2022-12-24T07:50:39.828Z,7.30
2022-12-24T07:53:06.740Z,5.40
2022-12-24T07:55:33.257Z,6.70
2022-12-24T07:58:01.141Z,6.20
2022-12-24T08:00:27.946Z,4.80
2022-12-24T08:03:00.380Z,4.90
2022-12-24T08:05:27.686Z,6.80
2022-12-24T08:07:55.341Z,5.50
2022-12-24T08:10:22.496Z,4.50
2022-12-24T08:12:50.181Z,5.80
2022-12-24T08:15:19.152Z,5.10
2022-12-24T08:17:45.746Z,5.20
2022-12-24T08:20:17.654Z,7.40
2022-12-24T08:22:45.332Z,5.10
2022-12-24T08:25:12.958Z,6.30
2022-12-24T08:27:40.550Z,5.50
2022-12-24T08:30:09.533Z,4.00
2022-12-24T08:32:36.227Z,5.20
2022-12-24T08:35:03.203Z,4.50
2022-12-24T08:37:29.679Z,4.20
2022-12-24T08:39:57.701Z,4.90
2022-12-24T08:42:24.909Z,4.60
2022-12-24T08:44:51.682Z,5.10
2022-12-24T08:47:18.421Z,4.40
2022-12-24T08:49:46.185Z,3.40
2022-12-24T08:52:12.678Z,5.10
2022-12-24T08:54:39.422Z,4.70
2022-12-24T08:57:06.984Z,4.30
2022-12-24T08:59:33.868Z,4.10
2022-12-24T09:02:01.790Z,4.00
2022-12-24T09:04:29.553Z,4.30
2022-12-24T09:06:56.096Z,4.10
2022-12-24T09:09:24.665Z,3.90
2022-12-24T09:11:51.476Z,3.60
2022-12-24T09:14:17.956Z,4.90
2022-12-24T09:16:45.635Z,3.90
2022-12-24T09:19:13.923Z,5.90
2022-12-24T09:21:42.102Z,3.80
2022-12-24T09:24:08.736Z,5.20
2022-12-24T09:26:37.823Z,5.60
2022-12-24T09:29:04.712Z,5.40
2022-12-24T09:31:31.493Z,4.20
2022-12-24T09:34:00.134Z,5.10
2022-12-24T09:36:27.801Z,5.90
2022-12-24T09:38:55.097Z,5.60
2022-12-24T09:41:47.543Z,4.40
2022-12-24T09:44:37.181Z,4.30
2022-12-24T09:47:11.566Z,5.10
2022-12-24T09:49:43.999Z,5.20
2022-12-24T09:52:35.320Z,5.00
2022-12-24T09:55:13.966Z,4.80
2022-12-24T09:57:42.025Z,5.10
2022-12-24T10:00:22.202Z,6.50
2022-12-24T10:02:49.340Z,6.40
2022-12-24T10:05:24.395Z,5.50
2022-12-24T10:08:28.723Z,5.60
2022-12-24T10:11:26.002Z,3.80
2022-12-24T10:13:55.490Z,4.80
2022-12-24T10:16:59.671Z,6.60
2022-12-24T10:19:43.451Z,5.00
2022-12-24T10:22:48.953Z,4.30
2022-12-24T10:25:23.126Z,4.20
2022-12-24T10:27:54.689Z,5.60
2022-12-24T10:30:23.143Z,6.40
2022-12-24T10:32:53.987Z,5.70
2022-12-24T10:35:29.539Z,6.30
2022-12-24T10:37:58.389Z,5.80
2022-12-24T10:40:48.625Z,6.10
2022-12-24T10:43:25.570Z,5.90
2022-12-24T10:48:30.638Z,6.00
2022-12-24T10:51:08.237Z,6.90
2022-12-24T10:53:54.748Z,8.40
2022-12-24T10:56:21.662Z,7.10
2022-12-24T10:58:54.858Z,6.80
2022-12-24T11:01:45.786Z,7.20
2022-12-24T11:04:18.363Z,7.70
2022-12-24T11:06:57.100Z,7.20
2022-12-24T11:09:28.032Z,8.40
2022-12-24T11:12:00.449Z,6.60
2022-12-24T11:14:40.900Z,8.40
2022-12-24T11:17:19.494Z,6.20
2022-12-24T11:19:49.772Z,11.20
2022-12-24T11:22:33.824Z,11.50
2022-12-24T11:25:19.317Z,8.80
2022-12-24T11:27:50.603Z,10.50
2022-12-24T11:30:17.131Z,9.10
2022-12-24T11:33:12.499Z,8.20
2022-12-24T11:35:44.350Z,6.90
2022-12-24T11:38:20.412Z,6.70
2022-12-24T11:40:59.081Z,7.10
2022-12-24T11:43:44.765Z,5.20
2022-12-24T11:46:37.876Z,7.60
2022-12-24T11:49:12.915Z,7.80
2022-12-24T11:52:02.363Z,8.50
2022-12-24T11:54:36.936Z,6.10
2022-12-24T11:57:07.585Z,6.70
2022-12-24T11:59:43.129Z,7.50
2022-12-24T12:02:23.503Z,8.00
2022-12-24T12:04:58.085Z,6.50
2022-12-24T12:07:30.458Z,7.20
2022-12-24T12:10:05.160Z,8.20
2022-12-24T12:12:38.837Z,10.20
2022-12-24T12:15:15.774Z,7.90
2022-12-24T12:17:50.680Z,8.40
2022-12-24T12:20:28.000Z,10.30
2022-12-24T12:23:04.981Z,10.00
2022-12-24T12:25:41.809Z,10.70
2022-12-24T12:28:36.888Z,9.70
2022-12-24T12:31:15.838Z,7.20
2022-12-24T12:34:05.757Z,10.50
2022-12-24T12:36:49.416Z,10.80
2022-12-24T12:39:21.301Z,8.80
2022-12-24T12:42:08.404Z,12.70
2022-12-24T12:44:45.191Z,9.40
2022-12-24T12:47:20.185Z,10.10
2022-12-24T12:50:04.548Z,8.80
2022-12-24T12:53:05.477Z,10.40
2022-12-24T12:56:00.236Z,14.50
2022-12-24T12:58:53.547Z,10.50
2022-12-24T13:01:33.317Z,11.30
2022-12-24T13:04:28.154Z,14.10
2022-12-24T13:07:15.613Z,18.20
2022-12-24T13:10:07.558Z,10.70
2022-12-24T13:13:04.976Z,13.80
2022-12-24T13:16:07.191Z,15.60
2022-12-24T13:18:45.063Z,13.10
2022-12-24T13:21:28.423Z,12.30
2022-12-24T13:24:26.252Z,15.60
2022-12-24T13:27:03.640Z,17.80
2022-12-24T13:29:45.155Z,15.90
2022-12-24T13:32:20.646Z,14.40
2022-12-24T13:35:18.119Z,14.10
2022-12-24T13:37:55.398Z,11.50
2022-12-24T13:40:25.258Z,12.20
2022-12-24T13:43:08.850Z,13.10
2022-12-24T13:45:38.588Z,11.00
2022-12-24T13:48:11.015Z,16.50
2022-12-24T13:50:55.525Z,19.80
2022-12-24T13:53:44.809Z,15.80
2022-12-24T13:56:14.596Z,11.70
2022-12-24T13:58:47.186Z,12.90
2022-12-24T14:01:20.365Z,17.50
2022-12-24T14:03:55.724Z,11.00
2022-12-24T14:06:28.201Z,16.80
2022-12-24T14:08:59.277Z,15.80
2022-12-24T14:11:28.364Z,20.60
2022-12-24T14:14:03.869Z,17.40
2022-12-24T14:16:41.639Z,11.10
2022-12-24T14:19:22.954Z,15.40
2022-12-24T14:22:04.529Z,14.50
2022-12-24T14:24:37.421Z,15.50
2022-12-24T14:27:36.773Z,12.80
2022-12-24T14:30:30.124Z,14.30
2022-12-24T14:32:57.203Z,17.60
2022-12-24T14:35:35.560Z,15.30
2022-12-24T14:38:21.745Z,21.00
2022-12-24T14:41:15.288Z,13.30
2022-12-24T14:44:18.662Z,17.90
2022-12-24T14:47:06.500Z,13.10
2022-12-24T14:49:51.295Z,12.50
2022-12-24T14:53:08.311Z,17.20
2022-12-24T14:55:48.455Z,14.50
2022-12-24T14:58:21.402Z,14.90
2022-12-24T15:00:49.930Z,19.70
2022-12-24T15:03:22.784Z,17.90
2022-12-24T15:05:55.450Z,15.10
2022-12-24T15:08:32.228Z,18.40
2022-12-24T15:11:06.132Z,14.90
2022-12-24T15:13:47.301Z,14.00
2022-12-24T15:16:22.310Z,18.90
2022-12-24T15:18:55.337Z,15.10
2022-12-24T15:21:32.691Z,14.30
2022-12-24T15:24:02.263Z,13.70
2022-12-24T15:26:36.711Z,16.60
2022-12-24T15:29:25.963Z,18.00
2022-12-24T15:31:56.177Z,16.70
2022-12-24T15:34:29.433Z,13.20
2022-12-24T15:37:13.259Z,12.70
2022-12-24T15:39:42.023Z,12.40
2022-12-24T15:42:18.779Z,17.30
2022-12-24T15:45:06.276Z,12.00
2022-12-24T15:47:40.507Z,20.20
2022-12-24T15:50:32.698Z,21.60
2022-12-24T15:53:21.170Z,15.90
2022-12-24T15:56:14.322Z,23.90
2022-12-24T15:58:45.062Z,18.20
2022-12-24T16:01:28.657Z,14.30
2022-12-24T16:03:58.011Z,12.30
2022-12-24T16:06:29.666Z,12.60
2022-12-24T16:08:56.633Z,20.50
2022-12-24T16:11:35.213Z,18.70
2022-12-24T16:14:20.271Z,12.50
2022-12-24T16:16:52.760Z,14.00
2022-12-24T16:19:27.808Z,15.50
2022-12-24T16:24:55.725Z,15.20
2022-12-24T16:27:23.458Z,13.20
2022-12-24T16:29:50.511Z,15.40
2022-12-24T16:32:27.099Z,13.10
2022-12-24T16:34:54.244Z,16.60
2022-12-24T16:37:20.782Z,14.80
2022-12-24T16:39:49.224Z,13.40
2022-12-24T16:42:37.793Z,17.00
2022-12-24T16:45:06.405Z,13.90
2022-12-24T16:47:42.423Z,8.70
2022-12-24T16:50:16.767Z,9.10
2022-12-24T16:52:43.499Z,11.40
2022-12-24T16:55:14.399Z,7.80
2022-12-24T16:57:43.473Z,8.70
2022-12-24T17:03:01.579Z,8.60
2022-12-24T17:05:28.492Z,11.50
2022-12-24T17:07:55.738Z,8.20
2022-12-24T17:10:22.653Z,11.10
2022-12-24T17:12:49.569Z,12.80
2022-12-24T17:15:16.107Z,10.40
2022-12-24T17:17:45.057Z,6.00
2022-12-24T17:20:12.254Z,9.40
2022-12-24T17:22:40.158Z,11.10
2022-12-24T17:25:08.272Z,9.90
2022-12-24T17:27:35.855Z,6.90
2022-12-24T17:30:02.942Z,8.90
2022-12-24T17:32:29.939Z,6.50
2022-12-24T17:34:56.988Z,9.40
2022-12-24T17:37:23.545Z,9.10
2022-12-24T17:39:50.054Z,15.60
2022-12-24T17:42:18.177Z,11.00
2022-12-24T17:44:46.403Z,9.80
2022-12-24T17:47:12.870Z,11.20
2022-12-24T17:49:40.566Z,10.00
2022-12-24T17:52:09.317Z,9.60
2022-12-24T17:54:36.141Z,13.90
2022-12-24T17:57:03.894Z,11.30
2022-12-24T17:59:32.585Z,8.50
2022-12-24T18:02:03.161Z,13.00
2022-12-24T18:04:30.395Z,12.30
2022-12-24T18:07:02.408Z,14.00
2022-12-24T18:09:30.982Z,9.20
2022-12-24T18:11:58.317Z,13.10
2022-12-24T18:14:26.687Z,8.90
2022-12-24T18:16:53.261Z,12.30
2022-12-24T18:19:20.874Z,11.40
2022-12-24T18:21:49.213Z,14.40
2022-12-24T18:24:17.482Z,11.50
2022-12-24T18:26:46.006Z,9.00
2022-12-24T18:29:13.144Z,15.30
2022-12-24T18:31:40.746Z,12.80
2022-12-24T18:34:13.222Z,14.00
2022-12-24T18:36:39.756Z,16.00
2022-12-24T18:39:06.254Z,10.40
2022-12-24T18:41:35.264Z,10.90
2022-12-24T18:44:04.055Z,15.00
2022-12-24T18:46:40.520Z,10.40
2022-12-24T18:49:07.225Z,10.40
2022-12-24T18:51:35.716Z,8.90
2022-12-24T18:54:06.954Z,10.70
2022-12-24T18:56:33.709Z,9.70
2022-12-24T18:59:02.136Z,13.30
2022-12-24T19:01:34.328Z,7.20
2022-12-24T19:04:01.665Z,9.90
2022-12-24T19:06:28.343Z,16.40
2022-12-24T19:08:57.615Z,11.60
2022-12-24T19:11:26.740Z,12.00
2022-12-24T19:14:00.968Z,13.20
2022-12-24T19:16:33.324Z,16.00
2022-12-24T19:19:04.016Z,14.70
2022-12-24T19:21:30.615Z,9.40
2022-12-24T19:23:57.139Z,8.70
2022-12-24T19:26:27.253Z,13.50
2022-12-24T19:28:55.312Z,12.90
2022-12-24T19:31:25.353Z,14.10
2022-12-24T19:33:55.878Z,9.50
2022-12-24T19:36:26.424Z,10.30
2022-12-24T19:38:53.068Z,7.70
2022-12-24T19:41:28.031Z,11.90
2022-12-24T19:43:59.583Z,9.70
2022-12-24T19:46:29.685Z,11.00
2022-12-24T19:49:00.561Z,12.80
2022-12-24T19:51:28.604Z,18.30
2022-12-24T19:53:57.237Z,16.70
2022-12-24T19:56:29.849Z,50.10
2022-12-24T19:59:00.392Z,12.10
2022-12-24T20:01:30.314Z,10.70
2022-12-24T20:03:57.923Z,6.90
2022-12-24T20:06:30.567Z,16.00
2022-12-24T20:09:09.378Z,11.40
2022-12-24T20:11:37.887Z,7.70
2022-12-24T20:14:07.292Z,10.60
2022-12-24T20:16:38.519Z,10.10
2022-12-24T20:19:06.997Z,12.40
2022-12-24T20:21:35.679Z,10.10
2022-12-24T20:24:04.413Z,11.60
2022-12-24T20:26:31.086Z,11.50
2022-12-24T20:28:58.298Z,10.00
2022-12-24T20:31:28.781Z,10.40
2022-12-24T20:33:56.657Z,11.70
2022-12-24T20:36:25.090Z,11.90
2022-12-24T20:38:53.335Z,12.50
2022-12-24T20:41:23.652Z,12.50
2022-12-24T20:43:52.380Z,12.90
2022-12-24T20:46:24.097Z,11.60
2022-12-24T20:48:54.197Z,13.50
2022-12-24T20:51:25.596Z,10.70
2022-12-24T20:53:57.903Z,12.90
2022-12-24T20:56:26.170Z,11.10
2022-12-24T20:58:53.745Z,13.00
2022-12-24T21:01:25.197Z,11.40
2022-12-24T21:03:54.294Z,12.90
2022-12-24T21:06:22.359Z,13.70
2022-12-24T21:08:52.903Z,14.80
2022-12-24T21:11:38.689Z,14.60
2022-12-24T21:14:07.636Z,13.10
2022-12-24T21:16:35.398Z,12.20
2022-12-24T21:19:04.737Z,13.10
2022-12-24T21:21:36.529Z,12.10
2022-12-24T21:24:04.726Z,13.60
2022-12-24T21:26:33.042Z,10.20
2022-12-24T21:29:01.419Z,9.70
2022-12-24T21:31:28.178Z,13.30
2022-12-24T21:33:55.669Z,10.30
2022-12-24T21:36:23.936Z,9.70
2022-12-24T21:38:51.159Z,13.30
2022-12-24T21:41:26.906Z,15.10
2022-12-24T21:43:54.811Z,9.70
2022-12-24T21:46:25.449Z,12.80
2022-12-24T21:49:16.483Z,9.30
2022-12-24T21:51:45.999Z,13.10
2022-12-24T21:54:28.721Z,11.60
2022-12-24T21:57:23.031Z,10.50
2022-12-24T21:59:52.484Z,7.80
2022-12-24T22:02:22.897Z,11.30
2022-12-24T22:04:51.591Z,21.90
2022-12-24T22:07:43.934Z,19.00
2022-12-24T22:10:31.265Z,12.80
2022-12-24T22:13:07.473Z,12.40
2022-12-24T22:15:37.475Z,12.00
2022-12-24T22:18:04.414Z,13.00
2022-12-24T22:20:36.087Z,10.90
2022-12-24T22:23:03.977Z,11.60
2022-12-24T22:25:34.894Z,10.00
2022-12-24T22:28:01.595Z,9.30
2022-12-24T22:30:28.484Z,10.70
2022-12-24T22:32:55.144Z,12.10
2022-12-24T22:35:21.886Z,13.20
2022-12-24T22:37:54.559Z,11.50
2022-12-24T22:40:28.256Z,11.90
2022-12-24T22:42:55.247Z,13.60
2022-12-24T22:45:23.092Z,15.20
2022-12-24T22:47:52.581Z,13.90
2022-12-24T22:50:19.721Z,13.90
2022-12-24T22:52:47.028Z,13.00
2022-12-24T22:55:13.597Z,12.10
2022-12-24T22:57:41.797Z,10.80
2022-12-24T23:00:36.029Z,11.50
2022-12-24T23:03:06.656Z,10.80
2022-12-24T23:05:34.656Z,12.20
2022-12-24T23:08:02.924Z,10.50
2022-12-24T23:10:29.803Z,13.90
2022-12-24T23:13:15.731Z,21.10
2022-12-24T23:15:46.672Z,9.80
2022-12-24T23:18:14.198Z,15.40
2022-12-24T23:20:45.394Z,18.50
2022-12-24T23:23:13.716Z,19.70
2022-12-24T23:25:40.549Z,13.90
2022-12-24T23:28:07.360Z,14.50
2022-12-24T23:30:34.073Z,13.80
2022-12-24T23:33:03.823Z,19.20
2022-12-24T23:35:30.723Z,10.70
2022-12-24T23:37:57.361Z,16.30
2022-12-24T23:40:28.663Z,11.30
2022-12-24T23:42:55.149Z,13.90
2022-12-24T23:45:23.297Z,14.90
2022-12-24T23:47:50.951Z,16.50
2022-12-24T23:50:17.921Z,15.80
2022-12-24T23:52:45.752Z,13.90
2022-12-24T23:55:18.361Z,11.70
2022-12-24T23:57:45.433Z,13.60
